Main page
METAR-TAF:

METAR-TAF

Airports :

Inverness Airport

Inverness, Scotland

latitude: 57-32N, longitude: 004-03W, elevation: 9 m

Current weather observation

The report was made 38 minutes ago, at 19:20 UTC
Wind 10 kt from the South/Southwest
Temperature 6°C
Humidity 81%
Pressure 1032 hPa
Visibility 10 km or more
Few clouds at a height of 2200 ft

METAR: EGPE 211920Z 21010KT 9999 FEW022 06/03 Q1032

Time: 19:58 (19:58 UTC)

Forecast

The report was made 3 hours and 0 minutes ago, at 16:58 UTC
Forecast valid from 21 at 18 UTC to 22 at 03 UTC
Wind 14 kt from the Southwest
Visibility 10 km or more
Few clouds at a height of 2000 ft
Temporary
from 21 at 18 UTC to 22 at 02 UTC
Wind 18 kt from the West/Southwest with gusts up to 28 kt
Probability 30% :
Temporary
from 21 at 18 UTC to 22 at 02 UTC
Broken clouds at a height of 1400 ft

TAF: EGPE 211658Z 2118/2203 23014KT 9999 FEW020 TEMPO 2118/2202 24018G28KT PROB30 TEMPO 2118/2202 BKN014

Weather observations and forecasts of more than 4000 airports (METAR and TAF reports).

The available stations are represented by yellow and red dots on the map.

Hover mouse over dot to see the name of the station.

Then click to see weather observations and forecasts.

To change the map : click on the green buttons with a black cross to zoom in, on the green button with a dash to zoom out, or on the green arrows for adjacent maps.


METAR-TAF: